createdAt,value
2022-08-07T00:01:44.069Z,1.50
2022-08-07T00:04:09.396Z,1.50
2022-08-07T00:06:51.171Z,1.65
2022-08-07T00:09:22.654Z,1.70
2022-08-07T00:11:55.997Z,1.77
2022-08-07T00:14:30.920Z,1.80
2022-08-07T00:17:02.405Z,1.70
2022-08-07T00:19:59.955Z,1.80
2022-08-07T00:22:24.382Z,1.73
2022-08-07T00:25:07.349Z,1.90
2022-08-07T00:27:53.141Z,1.85
2022-08-07T00:30:27.037Z,1.60
2022-08-07T00:32:57.546Z,1.92
2022-08-07T00:35:26.911Z,2.15
2022-08-07T00:38:00.364Z,1.60
2022-08-07T00:40:39.896Z,2.03
2022-08-07T00:44:01.684Z,1.70
2022-08-07T00:46:02.356Z,1.65
2022-08-07T00:48:31.978Z,1.95
2022-08-07T00:51:01.224Z,1.80
2022-08-07T00:53:39.348Z,2.08
2022-08-07T00:56:15.800Z,1.98
2022-08-07T00:58:47.332Z,1.85
2022-08-07T01:01:20.352Z,1.80
2022-08-07T01:03:56.149Z,2.10
2022-08-07T01:06:29.527Z,2.10
2022-08-07T01:09:00.993Z,2.03
2022-08-07T01:12:23.439Z,1.90
2022-08-07T01:14:28.831Z,1.70
2022-08-07T01:16:58.580Z,2.00
2022-08-07T01:19:32.601Z,1.90
2022-08-07T01:22:03.168Z,2.08
2022-08-07T01:24:36.413Z,1.92
2022-08-07T01:27:04.872Z,2.25
2022-08-07T01:29:34.353Z,2.45
2022-08-07T01:32:05.541Z,2.10
2022-08-07T01:34:44.489Z,2.20
2022-08-07T01:37:17.385Z,2.22
2022-08-07T01:39:48.035Z,2.20
2022-08-07T01:42:38.917Z,2.20
2022-08-07T01:45:18.290Z,2.20
2022-08-07T01:48:19.533Z,2.28
2022-08-07T01:50:49.704Z,2.50
2022-08-07T01:54:09.015Z,2.70
2022-08-07T01:56:49.452Z,2.15
2022-08-07T01:59:32.610Z,2.63
2022-08-07T02:02:07.447Z,2.90
2022-08-07T02:04:59.219Z,2.95
2022-08-07T02:07:49.906Z,2.60
2022-08-07T02:10:27.792Z,2.95
2022-08-07T02:13:01.687Z,2.55
2022-08-07T02:15:39.874Z,2.85
2022-08-07T02:18:13.376Z,2.47
2022-08-07T02:20:48.744Z,2.88
2022-08-07T02:23:25.699Z,3.10
2022-08-07T02:26:30.864Z,2.90
2022-08-07T02:28:45.467Z,2.55
2022-08-07T02:31:28.262Z,3.10
2022-08-07T02:34:03.058Z,3.10
2022-08-07T02:36:34.543Z,3.35
2022-08-07T02:39:17.545Z,3.38
2022-08-07T02:42:02.031Z,2.92
2022-08-07T02:44:34.875Z,3.40
2022-08-07T02:47:07.764Z,3.30
2022-08-07T02:49:57.520Z,3.25
2022-08-07T02:52:34.693Z,3.33
2022-08-07T02:55:27.847Z,3.60
2022-08-07T02:58:03.996Z,3.42
2022-08-07T03:00:35.220Z,3.03
2022-08-07T03:03:07.363Z,3.60
2022-08-07T03:05:49.658Z,3.22
2022-08-07T03:08:26.728Z,3.88
2022-08-07T03:10:58.221Z,3.58
2022-08-07T03:13:39.110Z,3.65
2022-08-07T03:16:23.079Z,3.75
2022-08-07T03:18:56.656Z,3.78
2022-08-07T03:21:24.663Z,3.70
2022-08-07T03:24:20.055Z,3.97
2022-08-07T03:29:39.851Z,4.30
2022-08-07T03:32:16.759Z,3.72
2022-08-07T03:35:16.897Z,3.80
2022-08-07T03:37:46.154Z,4.30
2022-08-07T03:40:22.927Z,4.07
2022-08-07T03:42:55.552Z,3.78
2022-08-07T03:45:30.936Z,3.97
2022-08-07T03:48:04.384Z,4.00
2022-08-07T03:50:38.814Z,4.10
2022-08-07T03:53:07.067Z,4.00
2022-08-07T03:55:57.371Z,4.10
2022-08-07T03:59:05.486Z,3.60
2022-08-07T04:01:16.208Z,4.03
2022-08-07T04:03:53.233Z,4.28
2022-08-07T04:06:37.187Z,4.72
2022-08-07T04:09:15.650Z,4.15
2022-08-07T04:12:28.231Z,4.65
2022-08-07T04:14:43.912Z,4.43
2022-08-07T04:17:20.979Z,4.43
2022-08-07T04:19:54.427Z,4.50
2022-08-07T04:22:29.207Z,4.43
2022-08-07T04:25:01.087Z,4.65
2022-08-07T04:27:35.519Z,4.50
2022-08-07T04:30:11.639Z,4.55
2022-08-07T04:32:58.355Z,4.90
2022-08-07T04:35:28.640Z,4.72
2022-08-07T04:38:09.130Z,5.05
2022-08-07T04:40:52.608Z,4.75
2022-08-07T04:44:12.844Z,4.97
2022-08-07T04:46:59.356Z,4.75
2022-08-07T04:49:37.742Z,5.30
2022-08-07T04:52:51.316Z,5.38
2022-08-07T04:58:23.578Z,5.85
2022-08-07T05:02:09.031Z,5.13
2022-08-07T05:05:54.451Z,5.68
2022-08-07T05:08:18.864Z,5.75
2022-08-07T05:11:19.711Z,5.75
2022-08-07T05:14:53.679Z,5.45
2022-08-07T05:16:57.545Z,5.72
2022-08-07T05:19:45.037Z,6.80
2022-08-07T05:22:26.714Z,6.68
2022-08-07T05:24:59.861Z,6.82
2022-08-07T05:28:03.550Z,6.28
2022-08-07T05:30:30.280Z,6.50
2022-08-07T05:33:03.851Z,7.10
2022-08-07T05:35:42.216Z,6.78
2022-08-07T05:38:12.794Z,6.28
2022-08-07T05:41:05.536Z,5.90
2022-08-07T05:44:08.115Z,5.78
2022-08-07T05:46:36.165Z,5.22
2022-08-07T05:49:11.702Z,5.65
2022-08-07T05:51:46.348Z,5.30
2022-08-07T05:54:30.971Z,5.07
2022-08-07T05:57:08.131Z,5.13
2022-08-07T05:59:56.225Z,5.30
2022-08-07T06:02:31.789Z,4.93
2022-08-07T06:05:15.395Z,5.45
2022-08-07T06:08:13.361Z,5.35
2022-08-07T06:10:37.533Z,5.80
2022-08-07T06:13:06.692Z,5.55
2022-08-07T06:15:43.287Z,6.10
2022-08-07T06:18:18.271Z,6.18
2022-08-07T06:20:49.599Z,6.07
2022-08-07T06:23:46.068Z,6.45
2022-08-07T06:26:05.338Z,6.43
2022-08-07T06:28:34.448Z,7.53
2022-08-07T06:31:01.564Z,6.65
2022-08-07T06:33:33.053Z,6.63
2022-08-07T06:36:12.246Z,6.85
2022-08-07T06:40:13.081Z,6.78
2022-08-07T06:42:01.935Z,7.18
2022-08-07T06:45:04.388Z,6.70
2022-08-07T06:47:38.653Z,7.47
2022-08-07T06:50:19.015Z,6.65
2022-08-07T06:52:54.063Z,6.65
2022-08-07T06:55:53.527Z,6.82
2022-08-07T06:58:21.618Z,7.68
2022-08-07T07:00:59.036Z,7.50
2022-08-07T07:03:48.089Z,6.65
2022-08-07T07:06:15.292Z,7.03
2022-08-07T07:08:53.824Z,7.00
2022-08-07T07:12:09.603Z,7.43
2022-08-07T07:14:10.997Z,7.55
2022-08-07T07:16:50.645Z,6.43
2022-08-07T07:19:57.554Z,7.28
2022-08-07T07:22:36.953Z,5.78
2022-08-07T07:26:31.455Z,6.07
2022-08-07T07:28:41.948Z,6.57
2022-08-07T07:31:03.675Z,7.30
2022-08-07T07:33:34.946Z,6.32
2022-08-07T07:36:12.540Z,5.85
2022-08-07T07:38:43.526Z,5.50
2022-08-07T07:41:16.502Z,5.40
2022-08-07T07:44:13.840Z,5.88
2022-08-07T07:46:55.224Z,4.85
2022-08-07T07:50:35.520Z,5.05
2022-08-07T07:52:18.690Z,4.38
2022-08-07T07:54:51.316Z,4.50
2022-08-07T07:57:53.385Z,4.95
2022-08-07T08:00:15.010Z,5.05
2022-08-07T08:03:06.303Z,4.35
2022-08-07T08:05:50.787Z,4.45
2022-08-07T08:08:35.262Z,4.28
2022-08-07T08:11:08.433Z,4.20
2022-08-07T08:13:54.130Z,4.10
2022-08-07T08:16:37.991Z,3.30
2022-08-07T08:19:17.602Z,3.42
2022-08-07T08:22:18.097Z,2.92
2022-08-07T08:25:25.035Z,3.10
2022-08-07T08:28:03.820Z,3.08
2022-08-07T08:30:37.472Z,3.10
2022-08-07T08:33:18.721Z,2.80
2022-08-07T08:35:55.848Z,2.35
2022-08-07T08:38:34.246Z,2.47
2022-08-07T08:41:31.418Z,2.40
2022-08-07T08:44:15.475Z,1.98
2022-08-07T08:47:05.052Z,2.30
2022-08-07T08:50:05.701Z,2.55
2022-08-07T08:53:03.554Z,2.30
2022-08-07T08:55:55.309Z,2.20
2022-08-07T09:01:40.234Z,2.22
2022-08-07T09:04:26.030Z,1.77
2022-08-07T09:07:23.257Z,1.67
2022-08-07T09:10:06.272Z,1.50
2022-08-07T09:12:57.767Z,1.77
2022-08-07T09:16:22.882Z,1.80
2022-08-07T09:18:58.564Z,1.60
2022-08-07T09:21:57.940Z,1.42
2022-08-07T09:24:56.128Z,1.50
2022-08-07T09:28:00.240Z,1.55
2022-08-07T09:31:00.603Z,1.80
2022-08-07T09:34:18.029Z,1.50
2022-08-07T09:37:14.687Z,1.55
2022-08-07T09:40:05.698Z,1.58
2022-08-07T09:43:03.936Z,1.75
2022-08-07T09:47:25.465Z,1.98
2022-08-07T09:50:02.148Z,2.30
2022-08-07T09:52:34.560Z,1.77
2022-08-07T09:55:28.872Z,1.58
2022-08-07T09:58:18.008Z,1.90
2022-08-07T10:01:50.628Z,1.92
2022-08-07T10:04:46.145Z,1.58
2022-08-07T10:08:09.230Z,1.30
2022-08-07T10:11:59.801Z,1.50
2022-08-07T10:14:35.407Z,1.38
2022-08-07T10:18:01.758Z,1.30
2022-08-07T10:22:14.698Z,1.50
2022-08-07T10:24:59.501Z,1.30
2022-08-07T10:28:12.611Z,1.50
2022-08-07T10:31:11.327Z,1.30
2022-08-07T10:34:06.677Z,1.55
2022-08-07T10:37:12.728Z,1.73
2022-08-07T10:40:06.171Z,1.60
2022-08-07T10:42:57.133Z,1.42
2022-08-07T10:45:44.568Z,1.60
2022-08-07T10:48:34.880Z,1.38
2022-08-07T10:52:01.940Z,1.50
2022-08-07T10:55:01.411Z,1.20
2022-08-07T10:57:57.550Z,1.65
2022-08-07T11:03:28.133Z,1.60
2022-08-07T11:06:28.491Z,1.67
2022-08-07T11:10:10.127Z,1.48
2022-08-07T11:12:38.581Z,1.40
2022-08-07T11:15:21.848Z,1.33
2022-08-07T11:18:05.959Z,1.20
2022-08-07T11:21:02.581Z,1.20
2022-08-07T11:24:18.243Z,1.30
2022-08-07T11:33:08.164Z,1.42
2022-08-07T11:36:20.468Z,1.55
2022-08-07T11:39:39.755Z,1.92
2022-08-07T11:42:29.856Z,1.73
2022-08-07T11:45:12.264Z,1.38
2022-08-07T11:48:33.411Z,1.70
2022-08-07T11:51:44.692Z,1.45
2022-08-07T11:54:55.596Z,1.65
2022-08-07T11:57:59.988Z,1.80
2022-08-07T12:01:05.240Z,1.52
2022-08-07T12:04:29.343Z,1.67
2022-08-07T12:07:20.337Z,1.88
2022-08-07T12:10:05.659Z,1.70
2022-08-07T12:12:44.288Z,1.35
2022-08-07T12:15:46.089Z,1.67
2022-08-07T12:18:34.206Z,1.63
2022-08-07T12:21:55.583Z,1.67
2022-08-07T12:25:07.998Z,1.63
2022-08-07T12:28:08.516Z,1.58
2022-08-07T12:30:40.716Z,1.52
2022-08-07T12:33:28.079Z,1.58
2022-08-07T12:38:42.684Z,1.55
2022-08-07T12:41:12.982Z,1.50
2022-08-07T12:44:04.135Z,1.60
2022-08-07T12:47:26.861Z,1.30
2022-08-07T12:53:17.513Z,1.20
2022-08-07T12:56:30.864Z,1.40
2022-08-07T12:59:04.949Z,1.40
2022-08-07T13:02:33.501Z,1.25
2022-08-07T13:06:03.406Z,1.10
2022-08-07T13:08:34.291Z,1.20
2022-08-07T13:12:02.384Z,1.48
2022-08-07T13:14:55.322Z,1.20
2022-08-07T13:17:52.615Z,1.55
2022-08-07T13:20:46.410Z,1.30
2022-08-07T13:24:01.502Z,1.02
2022-08-07T13:26:46.084Z,1.10
2022-08-07T13:30:19.672Z,1.40
2022-08-07T13:33:16.604Z,1.42
2022-08-07T13:36:29.014Z,1.48
2022-08-07T13:39:13.058Z,1.20
2022-08-07T13:41:57.904Z,1.40
2022-08-07T13:44:34.490Z,1.42
2022-08-07T13:47:09.364Z,1.70
2022-08-07T13:50:33.174Z,1.23
2022-08-07T13:52:43.043Z,1.17
2022-08-07T13:55:26.593Z,1.25
2022-08-07T13:58:28.021Z,1.30
2022-08-07T14:01:09.265Z,1.25
2022-08-07T14:04:05.182Z,1.10
2022-08-07T14:06:35.940Z,1.10
2022-08-07T14:09:05.986Z,1.10
2022-08-07T14:11:53.398Z,1.33
2022-08-07T14:14:42.192Z,1.30
2022-08-07T14:18:12.231Z,1.20
2022-08-07T14:20:39.864Z,1.10
2022-08-07T14:23:59.593Z,1.35
2022-08-07T14:26:29.944Z,1.10
2022-08-07T14:29:10.359Z,1.02
2022-08-07T14:31:56.421Z,1.38
2022-08-07T14:34:30.359Z,1.20
2022-08-07T14:37:08.046Z,0.90
2022-08-07T14:40:17.894Z,1.50
2022-08-07T14:43:00.809Z,1.50
2022-08-07T14:45:46.504Z,1.20
2022-08-07T14:48:21.924Z,1.00
2022-08-07T14:54:30.493Z,1.20
2022-08-07T14:56:50.859Z,1.42
2022-08-07T15:02:34.379Z,1.13
2022-08-07T15:05:04.041Z,1.05
2022-08-07T15:13:25.389Z,1.23
2022-08-07T15:16:03.441Z,1.00
2022-08-07T15:18:49.246Z,1.15
2022-08-07T15:21:58.838Z,1.10
2022-08-07T15:25:12.790Z,1.13
2022-08-07T15:27:23.419Z,1.10
2022-08-07T15:42:45.804Z,1.40
2022-08-07T15:44:17.144Z,1.00
2022-08-07T15:50:05.021Z,1.30
2022-08-07T15:52:32.719Z,1.45
2022-08-07T15:55:08.958Z,1.60
2022-08-07T15:57:49.051Z,1.35
2022-08-07T16:00:31.696Z,1.30
2022-08-07T16:03:47.260Z,1.52
2022-08-07T16:06:13.106Z,1.40
2022-08-07T16:08:45.613Z,1.50
2022-08-07T16:11:55.083Z,1.40
2022-08-07T16:15:09.979Z,1.40
2022-08-07T16:18:50.433Z,1.45
2022-08-07T16:22:02.668Z,1.63
2022-08-07T16:24:57.351Z,1.48
2022-08-07T16:27:41.654Z,1.52
2022-08-07T16:30:31.784Z,1.73
2022-08-07T16:34:02.135Z,1.50
2022-08-07T16:36:35.230Z,1.60
2022-08-07T16:40:28.081Z,1.70
2022-08-07T16:44:05.576Z,1.45
2022-08-07T16:47:12.450Z,1.33
2022-08-07T16:50:37.047Z,1.40
2022-08-07T16:53:55.424Z,1.48
2022-08-07T16:56:55.201Z,1.23
2022-08-07T16:59:46.705Z,1.17
2022-08-07T17:03:06.096Z,1.10
2022-08-07T17:06:29.627Z,1.10
2022-08-07T17:09:09.880Z,1.52
2022-08-07T17:12:35.752Z,1.75
2022-08-07T17:15:21.183Z,1.23
2022-08-07T17:18:29.798Z,1.60
2022-08-07T17:20:58.038Z,1.40
2022-08-07T17:23:32.596Z,1.58
2022-08-07T17:26:23.928Z,1.58
2022-08-07T17:29:05.964Z,1.58
2022-08-07T17:32:31.150Z,1.55
2022-08-07T17:35:51.396Z,1.40
2022-08-07T17:38:33.520Z,1.23
2022-08-07T17:41:12.489Z,1.20
2022-08-07T17:44:14.254Z,2.78
2022-08-07T17:47:03.894Z,1.25
2022-08-07T17:49:56.050Z,1.10
2022-08-07T17:52:43.584Z,1.00
2022-08-07T17:56:00.297Z,1.05
2022-08-07T17:58:46.486Z,0.90
2022-08-07T18:01:27.721Z,1.20
2022-08-07T18:04:31.271Z,1.10
2022-08-07T18:07:20.281Z,1.10
2022-08-07T18:10:05.806Z,0.80
2022-08-07T18:12:53.921Z,0.95
2022-08-07T18:15:32.919Z,1.02
2022-08-07T18:18:45.094Z,0.90
2022-08-07T18:21:27.470Z,1.15
2022-08-07T18:24:34.170Z,1.40
2022-08-07T18:27:49.832Z,1.02
2022-08-07T18:30:38.069Z,1.00
2022-08-07T18:33:54.994Z,1.10
2022-08-07T18:36:37.864Z,0.95
2022-08-07T18:40:09.060Z,0.95
2022-08-07T18:42:39.933Z,1.05
2022-08-07T18:45:44.659Z,0.90
2022-08-07T18:50:30.762Z,1.00
2022-08-07T18:52:40.769Z,1.10
2022-08-07T18:55:42.617Z,0.90
2022-08-07T18:58:39.320Z,1.10
2022-08-07T19:02:18.139Z,1.15
2022-08-07T19:04:59.479Z,0.93
2022-08-07T19:08:14.917Z,0.90
2022-08-07T19:14:16.994Z,1.00
2022-08-07T19:17:05.968Z,1.00
2022-08-07T19:20:03.685Z,1.27
2022-08-07T19:23:01.956Z,1.17
2022-08-07T19:26:24.982Z,0.98
2022-08-07T19:30:56.548Z,1.10
2022-08-07T19:32:11.515Z,1.20
2022-08-07T19:34:33.958Z,1.13
2022-08-07T19:37:10.360Z,1.10
2022-08-07T19:40:10.315Z,1.17
2022-08-07T19:42:45.580Z,1.00
2022-08-07T19:46:05.077Z,1.38
2022-08-07T19:48:18.490Z,1.40
2022-08-07T19:50:53.294Z,1.77
2022-08-07T19:54:34.443Z,1.08
2022-08-07T19:57:51.208Z,1.10
2022-08-07T19:59:02.704Z,1.08
2022-08-07T20:01:56.288Z,1.27
2022-08-07T20:04:42.156Z,1.20
2022-08-07T20:07:46.056Z,1.20
2022-08-07T20:10:55.399Z,1.10
2022-08-07T20:13:33.004Z,1.30
2022-08-07T20:16:04.456Z,1.40
2022-08-07T20:18:35.206Z,1.23
2022-08-07T20:21:21.398Z,1.33
2022-08-07T20:24:00.132Z,1.20
2022-08-07T20:26:44.725Z,1.52
2022-08-07T20:29:49.098Z,1.20
2022-08-07T20:32:11.403Z,1.23
2022-08-07T20:34:54.449Z,1.33
2022-08-07T20:37:29.696Z,1.50
2022-08-07T20:40:05.377Z,1.33
2022-08-07T20:42:56.663Z,1.50
2022-08-07T20:45:32.889Z,1.38
2022-08-07T20:48:28.606Z,1.60
2022-08-07T20:51:00.568Z,1.63
2022-08-07T20:54:03.567Z,1.63
2022-08-07T20:56:28.051Z,1.50
2022-08-07T20:59:05.832Z,1.35
2022-08-07T21:01:45.880Z,1.40
2022-08-07T21:04:28.668Z,2.13
2022-08-07T21:07:03.933Z,1.40
2022-08-07T21:09:52.723Z,1.73
2022-08-07T21:12:31.333Z,1.50
2022-08-07T21:15:05.284Z,1.80
2022-08-07T21:18:05.995Z,1.70
2022-08-07T21:20:30.128Z,1.70
2022-08-07T21:23:50.322Z,1.73
2022-08-07T21:26:39.590Z,1.90
2022-08-07T21:29:18.616Z,1.75
2022-08-07T21:32:43.006Z,1.98
2022-08-07T21:35:34.481Z,1.83
2022-08-07T21:38:49.932Z,2.00
2022-08-07T21:41:37.925Z,1.90
2022-08-07T21:44:53.870Z,2.25
2022-08-07T21:47:38.000Z,2.30
2022-08-07T21:50:16.527Z,2.40
2022-08-07T21:53:17.117Z,2.35
2022-08-07T21:56:48.162Z,2.20
2022-08-07T22:00:04.486Z,2.60
2022-08-07T22:03:17.152Z,2.42
2022-08-07T22:06:00.534Z,2.47
2022-08-07T22:08:42.537Z,2.20
2022-08-07T22:11:11.234Z,2.83
2022-08-07T22:13:52.190Z,2.60
2022-08-07T22:16:49.180Z,2.83
2022-08-07T22:19:32.527Z,2.75
2022-08-07T22:22:29.023Z,2.67
2022-08-07T22:25:08.382Z,2.90
2022-08-07T22:28:29.373Z,2.85
2022-08-07T22:31:06.709Z,2.90
2022-08-07T22:33:56.450Z,2.92
2022-08-07T22:36:53.168Z,3.20
2022-08-07T22:39:52.549Z,2.78
2022-08-07T22:42:29.673Z,3.10
2022-08-07T22:45:04.343Z,2.72
2022-08-07T22:48:31.414Z,3.00
2022-08-07T22:51:20.136Z,3.20
2022-08-07T22:54:40.675Z,3.33
2022-08-07T22:57:41.548Z,3.20
2022-08-07T23:00:21.590Z,2.97
2022-08-07T23:03:28.418Z,3.03
2022-08-07T23:06:37.215Z,3.08
2022-08-07T23:10:00.937Z,3.50
2022-08-07T23:12:52.633Z,3.03
2022-08-07T23:16:44.929Z,3.63
2022-08-07T23:20:02.994Z,3.88
2022-08-07T23:23:01.258Z,3.78
2022-08-07T23:26:23.463Z,3.78
2022-08-07T23:29:43.425Z,3.80
2022-08-07T23:34:33.552Z,3.15
2022-08-07T23:36:17.258Z,3.30
2022-08-07T23:39:12.621Z,3.63
2022-08-07T23:42:04.657Z,3.58
2022-08-07T23:44:56.316Z,4.03
2022-08-07T23:47:51.768Z,4.25
2022-08-07T23:50:54.555Z,4.15
2022-08-07T23:53:51.530Z,4.28
2022-08-07T23:56:53.654Z,4.20
